Time;durP1;ratioP1;P1;durP2;ratioP2;P2;SDS_P1;SDS_P2;PMS_P1;PMS_P2;Temp;Humidity;BMP_temperature;BMP_pressure;BME280_temperature;BME280_humidity;BME280_pressure;Samples;Min_cycle;Max_cycle;Signal;HPM_P1;HPM_P2
2022/09/28 00:02:04;;;;;;;12.43;1.63;;;15.20;81.00;;;;;;7373651;19;20022;-79
2022/09/28 00:04:33;;;;;;;13.43;2.10;;;15.20;81.40;;;;;;7397557;19;20094;-79
2022/09/28 00:07:01;;;;;;;10.90;2.03;;;15.00;81.50;;;;;;7378722;19;20027;-79
2022/09/28 00:09:30;;;;;;;17.02;2.15;;;15.00;82.00;;;;;;7376688;19;20035;-79
2022/09/28 00:11:59;;;;;;;10.30;1.90;;;14.80;81.90;;;;;;7376083;19;20014;-79
2022/09/28 00:14:31;;;;;;;10.27;1.65;;;14.90;81.90;;;;;;7373925;19;20018;-79
2022/09/28 00:16:59;;;;;;;15.65;2.10;;;14.90;81.40;;;;;;7377157;19;20019;-79
2022/09/28 00:19:28;;;;;;;9.82;1.75;;;14.80;80.30;;;;;;7397878;19;20038;-79
2022/09/28 00:21:57;;;;;;;14.68;2.33;;;14.80;80.70;;;;;;7375323;19;20002;-79
2022/09/28 00:24:26;;;;;;;13.57;2.58;;;14.70;80.30;;;;;;7375023;19;20018;-79
2022/09/28 00:26:57;;;;;;;17.15;3.05;;;14.60;81.10;;;;;;7374517;19;20031;-79
2022/09/28 00:29:28;;;;;;;14.98;2.38;;;14.60;81.50;;;;;;7373788;19;20022;-79
2022/09/28 00:32:01;;;;;;;12.68;2.22;;;14.60;81.10;;;;;;7376199;19;20023;-79
2022/09/28 00:34:33;;;;;;;12.02;2.30;;;14.70;81.20;;;;;;7397721;19;20031;-79
2022/09/28 00:37:03;;;;;;;13.60;2.10;;;14.70;80.70;;;;;;7376189;19;20019;-79
2022/09/28 00:39:34;;;;;;;14.55;2.25;;;14.80;80.90;;;;;;7375542;19;20073;-79
2022/09/28 00:42:04;;;;;;;14.93;2.22;;;14.80;80.70;;;;;;7374599;19;20018;-79
2022/09/28 00:44:39;;;;;;;17.35;2.45;;;14.80;80.50;;;;;;7374532;19;20089;-79
2022/09/28 00:47:28;;;;;;;12.50;2.42;;;14.80;80.20;;;;;;7374422;19;20322;-79
2022/09/28 00:50:00;;;;;;;9.80;2.58;;;14.80;80.60;;;;;;7377989;19;20018;-79
2022/09/28 00:52:33;;;;;;;14.52;2.67;;;14.90;80.80;;;;;;7397083;19;20014;-79
2022/09/28 00:55:07;;;;;;;15.30;2.50;;;15.00;80.50;;;;;;7376831;19;20057;-79
2022/09/28 00:57:37;;;;;;;14.80;2.42;;;15.00;80.50;;;;;;7377310;19;20090;-78
2022/09/28 01:00:07;;;;;;;17.95;2.47;;;15.10;80.70;;;;;;7376724;19;20088;-79
2022/09/28 01:02:38;;;;;;;18.45;2.88;;;15.10;80.70;;;;;;7376609;19;20019;-79
2022/09/28 01:05:08;;;;;;;;;;;15.20;80.80;;;;;;7375282;19;20706;-79
2022/09/28 01:07:38;;;;;;;12.40;2.60;;;15.30;80.90;;;;;;7398387;19;19982;-79
2022/09/28 01:10:09;;;;;;;17.13;2.85;;;15.30;80.20;;;;;;7377338;19;20016;-78
2022/09/28 01:12:37;;;;;;;11.73;2.78;;;15.20;80.20;;;;;;7375382;19;20030;-78
2022/09/28 01:15:07;;;;;;;13.32;2.17;;;15.20;80.20;;;;;;7376135;19;20022;-79
2022/09/28 01:17:53;;;;;;;12.85;2.15;;;15.20;80.30;;;;;;7371450;19;20030;-79
2022/09/28 01:20:36;;;;;;;19.35;2.60;;;15.20;80.60;;;;;;7373898;19;20015;-79
2022/09/28 01:23:31;;;;;;;11.23;2.70;;;15.20;80.60;;;;;;7370905;19;20014;-78
2022/09/28 01:26:19;;;;;;;17.92;3.10;;;15.20;80.90;;;;;;7372318;19;20014;-79
2022/09/28 01:28:52;;;;;;;13.15;2.75;;;15.20;80.70;;;;;;7381371;19;20679;-79
2022/09/28 01:31:27;;;;;;;16.95;2.35;;;15.30;80.80;;;;;;7396924;19;20018;-79
2022/09/28 01:34:01;;;;;;;14.85;2.13;;;15.20;81.00;;;;;;7375488;19;20015;-79
2022/09/28 01:36:36;;;;;;;8.85;2.47;;;15.20;81.00;;;;;;7384282;19;20473;-80
2022/09/28 01:39:10;;;;;;;10.73;2.47;;;15.20;81.40;;;;;;7381359;19;20474;-80
2022/09/28 01:41:45;;;;;;;12.65;2.25;;;15.10;81.60;;;;;;7377490;19;20010;-79
2022/09/28 01:44:18;;;;;;;13.77;2.97;;;15.10;81.90;;;;;;7378080;19;20116;-79
2022/09/28 01:46:49;;;;;;;10.98;2.58;;;15.10;82.20;;;;;;7399258;19;20015;-79
2022/09/28 01:49:21;;;;;;;;;;;15.20;82.30;;;;;;7376756;19;20604;-79
2022/09/28 01:51:55;;;;;;;9.85;2.55;;;15.30;82.60;;;;;;7375261;19;19948;-80
2022/09/28 01:54:30;;;;;;;11.10;2.15;;;15.30;82.00;;;;;;7375276;19;20035;-79
2022/09/28 01:57:07;;;;;;;13.10;3.28;;;15.30;82.00;;;;;;7375945;19;20020;-79
2022/09/28 01:59:38;;;;;;;11.05;2.35;;;15.20;82.10;;;;;;7374010;19;20010;-81
2022/09/28 02:02:11;;;;;;;14.52;2.50;;;15.30;82.20;;;;;;7375341;19;20043;-79
2022/09/28 02:04:44;;;;;;;10.93;2.60;;;15.30;81.90;;;;;;7393715;19;20016;-79
2022/09/28 02:07:18;;;;;;;8.13;2.00;;;15.20;81.90;;;;;;7370590;19;20090;-79
2022/09/28 02:09:54;;;;;;;18.83;2.67;;;15.20;82.00;;;;;;7370061;19;20663;-79
2022/09/28 02:12:35;;;;;;;15.30;2.70;;;15.10;82.00;;;;;;7370370;19;20030;-79
2022/09/28 02:15:12;;;;;;;;;;;15.10;82.20;;;;;;7372594;19;20014;-79
2022/09/28 02:17:41;;;;;;;14.63;2.20;;;15.20;82.60;;;;;;7370958;19;19922;-79
2022/09/28 02:20:10;;;;;;;15.10;2.55;;;15.20;82.10;;;;;;7369752;19;20022;-79
2022/09/28 02:22:44;;;;;;;15.50;2.80;;;15.20;82.20;;;;;;7392144;19;20029;-79
2022/09/28 02:25:18;;;;;;;11.60;2.35;;;15.10;82.20;;;;;;7375583;19;20014;-79
2022/09/28 02:27:57;;;;;;;15.05;3.00;;;15.20;82.30;;;;;;7378293;19;20018;-79
2022/09/28 02:30:25;;;;;;;14.30;2.53;;;15.10;82.30;;;;;;7376728;19;20010;-79
2022/09/28 02:32:58;;;;;;;9.68;2.00;;;15.10;82.00;;;;;;7372181;19;20113;-79
2022/09/28 02:35:28;;;;;;;15.48;2.65;;;15.10;82.30;;;;;;7371076;19;20006;-79
2022/09/28 02:37:58;;;;;;;14.20;2.60;;;15.10;82.30;;;;;;7369859;19;20010;-79
2022/09/28 02:40:31;;;;;;;12.77;2.10;;;15.10;82.10;;;;;;7391954;19;20011;-79
2022/09/28 02:43:13;;;;;;;15.18;2.33;;;15.00;81.90;;;;;;7372243;19;20029;-79
2022/09/28 02:45:53;;;;;;;13.73;2.83;;;15.10;82.10;;;;;;7375632;19;20156;-79
2022/09/28 02:48:38;;;;;;;20.98;2.30;;;15.20;82.10;;;;;;7378651;19;20434;-79
2022/09/28 02:51:17;;;;;;;15.82;2.83;;;15.10;82.00;;;;;;7377259;19;20866;-80
2022/09/28 02:54:04;;;;;;;14.35;2.75;;;15.10;82.00;;;;;;7375941;19;20137;-80
2022/09/28 02:56:51;;;;;;;17.88;3.42;;;15.20;82.40;;;;;;7379058;19;20813;-81
2022/09/28 02:59:37;;;;;;;12.48;2.63;;;15.20;82.40;;;;;;7385870;19;20593;-80
2022/09/28 03:02:15;;;;;;;17.02;2.70;;;15.20;82.00;;;;;;7384882;19;20085;-81
2022/09/28 03:04:56;;;;;;;11.80;2.47;;;15.20;81.90;;;;;;7400028;19;20035;-80
2022/09/28 03:07:28;;;;;;;11.70;2.42;;;15.20;82.00;;;;;;7376199;19;20017;-80
2022/09/28 03:10:03;;;;;;;16.42;2.65;;;15.20;81.80;;;;;;7374031;19;20014;-80
2022/09/28 03:12:32;;;;;;;13.02;2.78;;;15.20;81.90;;;;;;7376430;19;20102;-80
2022/09/28 03:15:17;;;;;;;9.45;2.72;;;15.20;82.00;;;;;;7376801;19;20019;-80
2022/09/28 03:17:45;;;;;;;11.15;2.92;;;15.20;82.30;;;;;;7375289;19;20031;-80
2022/09/28 03:20:14;;;;;;;18.17;5.05;;;15.30;82.30;;;;;;7377174;19;20031;-79
2022/09/28 03:22:43;;;;;;;14.13;3.10;;;15.40;82.70;;;;;;7403661;19;20026;-81
2022/09/28 03:25:14;;;;;;;17.02;2.92;;;15.40;82.50;;;;;;7382748;19;20607;-80
2022/09/28 03:27:46;;;;;;;24.37;2.87;;;15.40;82.60;;;;;;7380820;19;20010;-79
2022/09/28 03:30:17;;;;;;;13.18;2.60;;;15.40;82.50;;;;;;7379976;19;20014;-80
2022/09/28 03:32:46;;;;;;;;;;;15.40;82.50;;;;;;7382838;19;20014;-80
2022/09/28 03:35:15;;;;;;;16.83;2.72;;;15.50;82.60;;;;;;7378564;19;20028;-80
2022/09/28 03:37:44;;;;;;;18.35;3.17;;;15.50;81.90;;;;;;7400641;19;20014;-79
2022/09/28 03:40:12;;;;;;;13.73;2.63;;;15.50;82.30;;;;;;7372905;19;20446;-79
2022/09/28 03:42:42;;;;;;;20.63;2.85;;;15.40;82.30;;;;;;7375329;19;20018;-79
2022/09/28 03:45:12;;;;;;;14.38;3.53;;;15.50;82.50;;;;;;7375962;19;20015;-80
2022/09/28 03:47:47;;;;;;;14.32;3.17;;;15.40;82.40;;;;;;7375737;19;20014;-79
2022/09/28 03:50:16;;;;;;;11.52;2.85;;;15.40;82.30;;;;;;7375515;19;20449;-79
2022/09/28 03:52:45;;;;;;;20.63;2.92;;;15.50;82.20;;;;;;7399158;19;20014;-79
2022/09/28 03:55:14;;;;;;;19.05;3.15;;;15.40;82.20;;;;;;7374111;19;20775;-79
2022/09/28 03:57:43;;;;;;;14.93;3.15;;;15.40;82.00;;;;;;7373834;19;20014;-79
2022/09/28 04:00:13;;;;;;;13.35;3.03;;;15.40;82.20;;;;;;7374313;19;20017;-79
2022/09/28 04:02:44;;;;;;;9.88;2.63;;;15.40;82.20;;;;;;7374379;19;20094;-79
2022/09/28 04:05:13;;;;;;;10.27;2.92;;;15.40;82.10;;;;;;7374287;19;20034;-80
2022/09/28 04:07:42;;;;;;;12.88;2.90;;;15.40;81.90;;;;;;7395078;19;20011;-79
2022/09/28 04:10:11;;;;;;;15.20;3.28;;;15.30;81.40;;;;;;7374747;19;20017;-79
2022/09/28 04:12:43;;;;;;;13.15;2.60;;;15.30;81.70;;;;;;7375368;19;20025;-79
2022/09/28 04:15:12;;;;;;;15.55;3.78;;;15.30;81.70;;;;;;7373467;19;20006;-80
2022/09/28 04:17:44;;;;;;;16.05;3.25;;;15.20;81.70;;;;;;7376402;19;20023;-80
2022/09/28 04:20:13;;;;;;;12.90;3.00;;;15.20;81.80;;;;;;7372860;19;20682;-80
2022/09/28 04:22:43;;;;;;;14.52;2.67;;;15.30;82.00;;;;;;7394878;19;20082;-79
2022/09/28 04:25:12;;;;;;;13.38;3.22;;;15.20;81.80;;;;;;7376295;19;20379;-80
2022/09/28 04:30:22;;;;;;;11.27;3.60;;;15.30;82.20;;;;;;7375761;19;20021;-80
2022/09/28 04:32:53;;;;;;;21.25;4.18;;;15.30;82.20;;;;;;7376322;19;20034;-80
2022/09/28 04:35:22;;;;;;;13.73;3.03;;;15.30;82.20;;;;;;7374604;19;20673;-79
2022/09/28 04:37:51;;;;;;;9.23;3.08;;;15.30;83.20;;;;;;7374625;19;20096;-79
2022/09/28 04:40:19;;;;;;;14.32;3.50;;;15.40;82.30;;;;;;7394300;19;20015;-80
2022/09/28 04:42:55;;;;;;;14.38;3.13;;;15.40;82.30;;;;;;7370594;19;20015;-80
2022/09/28 04:45:24;;;;;;;14.68;3.28;;;15.40;82.00;;;;;;7373871;19;20147;-79
2022/09/28 04:47:56;;;;;;;19.45;3.55;;;15.40;82.00;;;;;;7376228;19;20030;-80
2022/09/28 04:50:24;;;;;;;;;;;15.40;81.90;;;;;;7399836;19;20027;-80
2022/09/28 04:52:53;;;;;;;16.92;3.50;;;15.40;82.20;;;;;;7396636;19;19929;-80
2022/09/28 04:55:22;;;;;;;15.77;3.78;;;15.40;81.70;;;;;;7394043;19;20018;-81
2022/09/28 04:57:54;;;;;;;14.40;3.85;;;15.40;81.90;;;;;;7371999;19;20021;-78
2022/09/28 05:00:22;;;;;;;18.65;4.63;;;15.30;81.90;;;;;;7371799;19;20032;-81
2022/09/28 05:02:51;;;;;;;17.00;4.15;;;15.30;81.80;;;;;;7370227;19;20120;-81
2022/09/28 05:05:23;;;;;;;17.38;4.30;;;15.30;82.00;;;;;;7373916;19;20117;-79
2022/09/28 05:07:51;;;;;;;17.73;4.63;;;15.30;82.10;;;;;;7369614;19;20002;-79
2022/09/28 05:10:20;;;;;;;18.67;4.00;;;15.30;82.30;;;;;;7392693;19;20022;-79
2022/09/28 05:12:49;;;;;;;14.60;3.83;;;15.30;82.10;;;;;;7370921;19;20022;-79
2022/09/28 05:15:18;;;;;;;15.52;3.42;;;15.30;82.00;;;;;;7371297;19;20014;-78
2022/09/28 05:17:46;;;;;;;19.25;4.00;;;15.30;82.10;;;;;;7374250;19;20092;-78
2022/09/28 05:20:15;;;;;;;16.92;3.60;;;15.30;81.90;;;;;;7373692;19;20025;-79
2022/09/28 05:22:47;;;;;;;11.25;3.83;;;15.30;81.90;;;;;;7394617;19;20435;-81
2022/09/28 05:25:15;;;;;;;12.68;4.13;;;15.30;82.00;;;;;;7373335;19;20030;-82
2022/09/28 05:27:44;;;;;;;16.80;4.45;;;15.30;81.90;;;;;;7371007;19;20202;-85
2022/09/28 05:30:14;;;;;;;19.42;4.18;;;15.30;81.90;;;;;;7371499;19;20060;-84
2022/09/28 05:32:43;;;;;;;19.30;4.47;;;15.30;81.90;;;;;;7373945;19;20007;-86
2022/09/28 05:35:12;;;;;;;13.90;4.57;;;15.30;81.90;;;;;;7376483;19;20011;-84
2022/09/28 05:37:41;;;;;;;18.17;4.57;;;15.30;81.60;;;;;;7396412;19;20461;-84
2022/09/28 05:40:16;;;;;;;16.73;3.95;;;15.30;81.70;;;;;;7373543;19;20328;-84
2022/09/28 05:42:45;;;;;;;17.80;4.22;;;15.30;81.70;;;;;;7374908;19;20373;-85
2022/09/28 05:45:14;;;;;;;12.10;4.20;;;15.30;81.60;;;;;;7376379;19;20441;-79
2022/09/28 05:47:44;;;;;;;15.30;4.13;;;15.20;81.00;;;;;;7374134;19;20460;-79
2022/09/28 05:50:15;;;;;;;17.37;4.43;;;15.20;81.80;;;;;;7371993;19;20018;-80
2022/09/28 05:52:45;;;;;;;18.20;4.10;;;15.30;81.10;;;;;;7391381;19;20090;-77
2022/09/28 05:55:16;;;;;;;16.90;4.68;;;15.30;81.30;;;;;;7368173;19;20018;-77
2022/09/28 05:57:45;;;;;;;16.77;4.35;;;15.30;81.10;;;;;;7369643;19;20014;-77
2022/09/28 06:00:14;;;;;;;16.27;4.30;;;15.30;81.00;;;;;;7369996;19;20015;-76
2022/09/28 06:02:43;;;;;;;16.77;4.90;;;15.30;81.00;;;;;;7369292;19;20021;-79
2022/09/28 06:05:12;;;;;;;14.00;4.65;;;15.30;81.00;;;;;;7370911;19;20017;-76
2022/09/28 06:07:41;;;;;;;17.98;4.63;;;15.30;81.00;;;;;;7391368;19;20043;-76
2022/09/28 06:10:11;;;;;;;16.08;4.72;;;15.30;80.80;;;;;;7369865;19;20015;-77
2022/09/28 06:12:42;;;;;;;18.65;4.63;;;15.30;80.50;;;;;;7370367;19;20089;-75
2022/09/28 06:15:12;;;;;;;18.52;5.00;;;15.20;80.70;;;;;;7368952;19;20070;-75
2022/09/28 06:17:42;;;;;;;20.23;5.05;;;15.30;80.70;;;;;;7369710;19;20468;-78
2022/09/28 06:20:12;;;;;;;17.95;4.40;;;15.30;80.70;;;;;;7372927;19;20018;-76
2022/09/28 06:22:41;;;;;;;24.83;4.85;;;15.30;80.70;;;;;;7400000;19;20625;-77
2022/09/28 06:25:11;;;;;;;44.97;4.75;;;15.30;80.80;;;;;;7376524;19;20013;-78
2022/09/28 06:27:42;;;;;;;16.42;4.75;;;15.40;81.00;;;;;;7374918;19;20007;-76
2022/09/28 06:30:11;;;;;;;12.73;5.10;;;15.40;81.00;;;;;;7376501;19;20019;-77
2022/09/28 06:32:40;;;;;;;24.88;5.75;;;15.40;81.00;;;;;;7376560;19;20062;-75
2022/09/28 06:35:10;;;;;;;16.52;5.25;;;15.50;81.10;;;;;;7377349;19;20754;-78
2022/09/28 06:37:39;;;;;;;18.83;6.07;;;15.50;81.10;;;;;;7397326;19;20022;-77
2022/09/28 06:40:08;;;;;;;14.30;5.90;;;15.50;81.00;;;;;;7376456;19;20077;-75
2022/09/28 06:42:37;;;;;;;14.82;5.45;;;15.60;81.00;;;;;;7376909;19;20090;-77
2022/09/28 06:45:10;;;;;;;16.98;5.57;;;15.60;80.90;;;;;;7378457;19;20082;-77
2022/09/28 06:47:40;;;;;;;17.02;6.70;;;15.60;80.90;;;;;;7377271;19;20015;-76
2022/09/28 06:50:11;;;;;;;20.77;8.00;;;15.70;81.00;;;;;;7376787;19;20026;-76
2022/09/28 06:52:40;;;;;;;16.25;6.30;;;15.70;80.80;;;;;;7399748;19;20007;-76
2022/09/28 06:55:09;;;;;;;17.65;6.35;;;15.70;80.30;;;;;;7375726;19;20105;-76
2022/09/28 06:57:38;;;;;;;20.88;6.05;;;15.70;80.20;;;;;;7375300;19;20118;-78
2022/09/28 07:00:12;;;;;;;20.63;5.97;;;15.70;80.00;;;;;;7375635;19;20011;-76
2022/09/28 07:02:41;;;;;;;15.93;6.75;;;15.60;80.20;;;;;;7375311;19;20031;-76
2022/09/28 07:05:14;;;;;;;19.40;6.00;;;15.60;80.00;;;;;;7376900;19;20459;-76
2022/09/28 07:07:44;;;;;;;18.75;6.80;;;15.70;80.10;;;;;;7397713;19;20334;-76
2022/09/28 07:10:13;;;;;;;19.92;6.35;;;15.70;80.00;;;;;;7378658;19;20385;-76
2022/09/28 07:12:42;;;;;;;17.58;6.30;;;15.70;80.00;;;;;;7377955;19;20010;-78
2022/09/28 07:15:14;;;;;;;21.80;5.78;;;15.70;80.00;;;;;;7377186;19;20038;-78
2022/09/28 07:17:45;;;;;;;18.45;5.85;;;15.60;79.70;;;;;;7377914;19;20015;-76
2022/09/28 07:20:14;;;;;;;19.33;6.40;;;15.60;79.40;;;;;;7377841;19;20021;-79
2022/09/28 07:22:44;;;;;;;18.38;6.28;;;15.60;79.70;;;;;;7396679;19;20039;-75
2022/09/28 07:25:13;;;;;;;20.27;5.53;;;15.70;79.50;;;;;;7377302;19;20441;-77
2022/09/28 07:27:42;;;;;;;16.40;5.55;;;15.60;79.40;;;;;;7375394;19;20017;-75
2022/09/28 07:30:16;;;;;;;18.08;5.45;;;15.60;79.10;;;;;;7374239;19;20010;-78
2022/09/28 07:32:47;;;;;;;16.65;4.95;;;15.50;79.60;;;;;;7375123;19;20027;-77
2022/09/28 07:35:16;;;;;;;16.80;4.15;;;15.60;79.20;;;;;;7375343;19;20097;-78
2022/09/28 07:37:45;;;;;;;15.60;4.82;;;15.70;78.90;;;;;;7397667;19;20018;-77
2022/09/28 07:42:55;;;;;;;17.80;3.65;;;15.70;78.90;;;;;;7376216;19;20048;-77
2022/09/28 07:45:28;;;;;;;13.50;4.55;;;15.70;78.00;;;;;;7375288;19;20478;-78
2022/09/28 07:47:57;;;;;;;14.75;3.42;;;15.70;78.20;;;;;;7372418;19;20050;-78
2022/09/28 07:50:26;;;;;;;17.50;3.33;;;15.70;77.10;;;;;;7373784;19;20034;-76
2022/09/28 07:52:57;;;;;;;15.93;3.30;;;15.80;77.30;;;;;;7372689;19;20027;-75
2022/09/28 07:55:28;;;;;;;11.35;2.70;;;15.80;76.90;;;;;;7393113;19;20117;-79
2022/09/28 07:58:00;;;;;;;10.45;2.83;;;15.70;76.30;;;;;;7374336;19;20084;-76
2022/09/28 08:00:32;;;;;;;15.05;3.92;;;15.70;76.00;;;;;;7373679;19;20014;-76
2022/09/28 08:03:01;;;;;;;10.25;2.25;;;15.80;76.20;;;;;;7373143;19;20015;-75
2022/09/28 08:05:30;;;;;;;12.68;2.75;;;15.80;76.30;;;;;;7373906;19;20130;-75
2022/09/28 08:08:00;;;;;;;15.20;2.80;;;15.90;76.30;;;;;;7372958;19;20021;-75
2022/09/28 08:10:28;;;;;;;17.60;2.92;;;15.80;75.00;;;;;;7395252;19;20142;-78
2022/09/28 08:12:58;;;;;;;7.00;2.75;;;15.70;75.20;;;;;;7370760;19;20026;-78
2022/09/28 08:15:27;;;;;;;15.50;2.75;;;15.70;75.10;;;;;;7373545;19;20034;-75
2022/09/28 08:17:58;;;;;;;8.02;2.47;;;15.70;75.20;;;;;;7374660;19;20117;-77
2022/09/28 08:23:10;;;;;;;11.65;2.83;;;15.80;75.80;;;;;;7374380;19;20016;-78
2022/09/28 08:25:39;;;;;;;11.93;2.53;;;15.80;75.00;;;;;;7395996;19;20456;-77
2022/09/28 08:28:08;;;;;;;13.27;2.72;;;15.90;75.40;;;;;;7372466;19;20081;-77
2022/09/28 08:30:37;;;;;;;9.52;2.42;;;16.00;75.30;;;;;;7371738;19;20019;-77
2022/09/28 08:33:09;;;;;;;10.70;2.53;;;15.90;74.10;;;;;;7374291;19;20015;-77
2022/09/28 08:35:37;;;;;;;17.35;2.55;;;15.80;73.70;;;;;;7375461;19;20006;-77
2022/09/28 08:38:06;;;;;;;12.70;2.40;;;15.70;74.30;;;;;;7373650;19;20082;-78
2022/09/28 08:40:40;;;;;;;8.05;2.20;;;15.70;73.70;;;;;;7395054;19;20022;-78
2022/09/28 08:43:24;;;;;;;14.75;2.50;;;15.70;73.00;;;;;;7370160;19;20014;-75
2022/09/28 08:45:53;;;;;;;11.80;2.67;;;15.80;73.80;;;;;;7371591;19;20441;-75
2022/09/28 08:48:47;;;;;;;13.23;2.28;;;15.80;72.70;;;;;;7370743;19;20007;-78
2022/09/28 08:51:21;;;;;;;11.65;1.92;;;15.90;73.60;;;;;;7372617;19;20011;-78
2022/09/28 08:53:55;;;;;;;13.13;2.33;;;16.00;72.20;;;;;;7373194;19;20091;-78
2022/09/28 08:56:31;;;;;;;7.57;2.42;;;16.10;72.50;;;;;;7373884;19;20015;-76
2022/09/28 08:59:04;;;;;;;10.55;2.15;;;16.10;71.30;;;;;;7370986;19;20089;-76
2022/09/28 09:01:38;;;;;;;11.90;1.73;;;16.20;71.50;;;;;;7394477;19;20086;-76
2022/09/28 09:04:10;;;;;;;16.15;2.47;;;16.20;70.50;;;;;;7371283;19;20006;-76
2022/09/28 09:06:56;;;;;;;7.47;1.70;;;16.30;69.90;;;;;;7370930;19;20010;-77
2022/09/28 09:09:38;;;;;;;13.57;2.13;;;16.40;68.00;;;;;;7371023;19;20022;-75
2022/09/28 09:12:15;;;;;;;10.55;1.98;;;16.40;67.80;;;;;;7373400;19;20018;-76
2022/09/28 09:15:13;;;;;;;9.18;2.10;;;16.30;67.40;;;;;;7372258;19;20482;-76
2022/09/28 09:17:59;;;;;;;6.38;1.80;;;16.40;67.80;;;;;;7373084;19;20021;-76
2022/09/28 09:20:41;;;;;;;14.20;2.03;;;16.40;67.80;;;;;;7372115;19;20063;-77
2022/09/28 09:23:19;;;;;;;7.20;1.90;;;16.50;67.90;;;;;;7371555;19;20086;-76
2022/09/28 09:25:51;;;;;;;7.65;2.03;;;16.50;66.70;;;;;;7380319;19;20101;-79
2022/09/28 09:28:44;;;;;;;16.55;2.22;;;16.50;66.60;;;;;;7393500;19;20081;-75
2022/09/28 09:31:25;;;;;;;12.93;2.17;;;16.40;66.50;;;;;;7371464;19;20014;-75
2022/09/28 09:34:18;;;;;;;11.02;1.70;;;16.20;66.10;;;;;;7371587;19;20015;-78
2022/09/28 09:37:12;;;;;;;10.32;1.75;;;16.20;65.50;;;;;;7368833;19;20014;-77
2022/09/28 09:39:56;;;;;;;10.65;2.05;;;16.30;66.00;;;;;;7369108;19;20010;-76
2022/09/28 09:42:46;;;;;;;7.97;1.67;;;16.30;65.00;;;;;;7367742;19;20015;-77
2022/09/28 09:45:34;;;;;;;6.55;1.60;;;16.30;65.00;;;;;;7367324;19;20043;-77
2022/09/28 09:48:05;;;;;;;11.48;1.90;;;16.40;64.40;;;;;;7369488;19;20007;-76
2022/09/28 09:50:38;;;;;;;;;;;16.40;64.90;;;;;;7367678;19;20031;-76
2022/09/28 09:53:20;;;;;;;10.10;2.00;;;16.40;64.10;;;;;;7368353;19;20335;-76
2022/09/28 09:55:56;;;;;;;17.08;1.73;;;16.30;63.90;;;;;;7368604;19;20383;-77
2022/09/28 09:58:30;;;;;;;7.22;1.60;;;16.30;64.00;;;;;;7390065;19;20048;-77
2022/09/28 10:01:08;;;;;;;11.20;1.70;;;16.20;64.10;;;;;;7367487;19;20025;-76
2022/09/28 10:03:41;;;;;;;5.93;1.30;;;16.20;64.00;;;;;;7367233;19;20018;-76
2022/09/28 10:06:15;;;;;;;6.28;1.70;;;16.10;63.00;;;;;;7369453;19;20006;-77
2022/09/28 10:08:52;;;;;;;12.98;1.55;;;16.00;62.00;;;;;;7368409;19;20011;-77
2022/09/28 10:11:27;;;;;;;8.15;1.60;;;16.10;63.50;;;;;;7366759;19;20011;-76
2022/09/28 10:13:56;;;;;;;9.40;1.73;;;16.20;63.10;;;;;;7369104;19;20097;-77
2022/09/28 10:16:26;;;;;;;11.50;1.30;;;16.20;63.10;;;;;;7390392;19;20014;-76
2022/09/28 10:18:54;;;;;;;14.50;2.17;;;16.00;61.40;;;;;;7369904;19;20024;-76
2022/09/28 10:21:25;;;;;;;14.60;1.67;;;16.00;63.10;;;;;;7369061;19;20018;-76
2022/09/28 10:24:01;;;;;;;15.82;1.60;;;16.10;62.90;;;;;;7369802;19;20015;-76
2022/09/28 10:26:36;;;;;;;7.20;1.35;;;16.30;62.70;;;;;;7372178;19;20018;-77
2022/09/28 10:29:08;;;;;;;9.18;1.63;;;16.30;62.20;;;;;;7370609;19;20082;-76
2022/09/28 10:31:40;;;;;;;7.07;1.45;;;16.40;60.80;;;;;;7390186;19;20015;-77
2022/09/28 10:34:12;;;;;;;6.80;1.33;;;16.40;60.90;;;;;;7368861;19;20040;-76
2022/09/28 10:37:04;;;;;;;8.90;1.15;;;16.50;61.00;;;;;;7368558;19;20081;-76
2022/09/28 10:39:39;;;;;;;9.85;1.55;;;16.60;60.90;;;;;;7368695;19;20023;-76
2022/09/28 10:42:11;;;;;;;11.70;2.05;;;16.70;61.10;;;;;;7369616;19;20011;-76
2022/09/28 10:45:04;;;;;;;10.50;1.33;;;16.80;60.00;;;;;;7369660;19;20011;-76
2022/09/28 10:47:34;;;;;;;10.82;1.83;;;17.00;59.60;;;;;;7368800;19;20015;-76
2022/09/28 10:50:04;;;;;;;8.05;1.60;;;17.00;59.70;;;;;;7368845;19;20033;-76
2022/09/28 10:52:35;;;;;;;8.98;1.40;;;16.70;59.50;;;;;;7388015;19;20430;-76
2022/09/28 10:55:29;;;;;;;3.25;1.13;;;16.60;58.80;;;;;;7368683;19;20606;-76
2022/09/28 10:57:58;;;;;;;7.70;1.42;;;16.60;59.20;;;;;;7368676;19;20026;-76
2022/09/28 11:00:35;;;;;;;5.93;1.33;;;16.50;59.60;;;;;;7369245;19;20025;-76
2022/09/28 11:03:04;;;;;;;4.55;1.30;;;16.50;59.60;;;;;;7368986;19;20057;-76
2022/09/28 11:05:34;;;;;;;11.10;1.67;;;16.70;59.50;;;;;;7371726;19;20010;-76
2022/09/28 11:08:09;;;;;;;8.85;1.40;;;16.70;59.50;;;;;;7377326;19;20015;-76
2022/09/28 11:10:40;;;;;;;5.53;1.40;;;16.80;59.50;;;;;;7395247;19;20061;-77
2022/09/28 11:13:11;;;;;;;10.35;1.63;;;16.90;59.70;;;;;;7376060;19;20018;-76
2022/09/28 11:15:45;;;;;;;10.03;1.80;;;17.10;60.20;;;;;;7374197;19;20488;-77
2022/09/28 11:18:22;;;;;;;7.60;1.45;;;17.10;59.10;;;;;;7376639;19;20049;-77
2022/09/28 11:20:50;;;;;;;7.15;1.38;;;17.10;59.40;;;;;;7374204;19;20011;-77
2022/09/28 11:23:24;;;;;;;9.38;1.65;;;17.10;58.40;;;;;;7377706;19;20022;-77
2022/09/28 11:26:05;;;;;;;7.78;2.00;;;17.10;58.80;;;;;;7375922;19;20052;-77
2022/09/28 11:28:37;;;;;;;7.18;1.60;;;17.10;59.00;;;;;;7397375;19;20464;-76
2022/09/28 11:31:07;;;;;;;6.00;1.75;;;17.20;59.30;;;;;;7374370;19;20010;-76
2022/09/28 11:33:40;;;;;;;10.15;1.75;;;17.30;58.90;;;;;;7374768;19;20014;-77
2022/09/28 11:36:28;;;;;;;10.45;1.40;;;17.50;58.80;;;;;;7373919;19;20014;-76
2022/09/28 11:39:07;;;;;;;13.52;2.10;;;17.40;57.80;;;;;;7375523;19;20011;-77
2022/09/28 11:41:51;;;;;;;6.28;1.35;;;17.30;57.90;;;;;;7375508;19;20018;-77
2022/09/28 11:44:40;;;;;;;5.22;1.52;;;17.20;58.20;;;;;;7373509;19;20118;-76
2022/09/28 11:47:38;;;;;;;6.80;1.30;;;17.20;57.70;;;;;;7375311;19;20926;-76
2022/09/28 11:50:17;;;;;;;7.13;1.27;;;17.20;58.30;;;;;;7373774;19;20025;-76
2022/09/28 11:52:50;;;;;;;7.05;1.30;;;17.30;57.90;;;;;;7397175;19;20014;-76
2022/09/28 11:55:26;;;;;;;5.85;1.33;;;17.40;57.70;;;;;;7373880;19;20424;-76
2022/09/28 11:58:05;;;;;;;6.93;1.63;;;17.50;58.40;;;;;;7374554;19;20011;-78
2022/09/28 12:00:38;;;;;;;9.25;1.63;;;17.40;57.90;;;;;;7373430;19;20014;-76
2022/09/28 12:03:13;;;;;;;6.95;1.45;;;17.50;57.30;;;;;;7375019;19;20018;-76
2022/09/28 12:05:46;;;;;;;7.80;1.65;;;17.40;57.60;;;;;;7374607;19;20130;-76
2022/09/28 12:08:21;;;;;;;10.00;1.52;;;17.40;57.60;;;;;;7371238;19;20014;-76
2022/09/28 12:10:56;;;;;;;7.07;1.52;;;17.40;58.30;;;;;;7372213;19;20022;-76
2022/09/28 12:13:30;;;;;;;6.18;1.60;;;17.40;58.20;;;;;;7395109;19;20014;-76
2022/09/28 12:16:03;;;;;;;10.05;1.63;;;17.40;58.00;;;;;;7373951;19;20014;-76
2022/09/28 12:18:39;;;;;;;10.18;1.63;;;17.30;57.70;;;;;;7374293;19;20082;-76
2022/09/28 12:21:24;;;;;;;10.88;1.70;;;17.20;58.00;;;;;;7373320;19;20589;-76
2022/09/28 12:23:57;;;;;;;8.40;1.30;;;17.20;57.60;;;;;;7374308;19;20086;-76
2022/09/28 12:26:33;;;;;;;9.45;1.67;;;17.20;57.40;;;;;;7372732;19;20803;-76
2022/09/28 12:29:12;;;;;;;8.05;1.75;;;17.30;57.70;;;;;;7371665;19;20021;-75
2022/09/28 12:31:49;;;;;;;16.45;1.60;;;17.10;58.40;;;;;;7394534;19;20117;-76
2022/09/28 12:34:18;;;;;;;16.40;1.83;;;17.10;58.30;;;;;;7373875;19;20342;-76
2022/09/28 12:36:53;;;;;;;7.35;1.63;;;17.00;57.80;;;;;;7373127;19;20006;-76
2022/09/28 12:39:37;;;;;;;5.97;1.15;;;17.10;58.40;;;;;;7374261;19;20054;-75
2022/09/28 12:42:19;;;;;;;7.82;1.90;;;17.10;58.20;;;;;;7374371;19;20046;-76
2022/09/28 12:45:10;;;;;;;7.97;1.63;;;17.10;58.30;;;;;;7371108;19;20006;-76
2022/09/28 12:47:54;;;;;;;;;;;16.80;59.20;;;;;;7373759;19;20011;-75
2022/09/28 12:50:32;;;;;;;12.32;1.58;;;16.80;58.90;;;;;;7370945;19;19932;-76
2022/09/28 12:53:28;;;;;;;10.18;1.67;;;16.90;59.20;;;;;;7374763;19;20042;-76
2022/09/28 12:56:05;;;;;;;6.07;1.08;;;17.00;58.90;;;;;;7371915;19;20085;-76
2022/09/28 12:58:58;;;;;;;4.03;1.20;;;17.20;57.00;;;;;;7395104;19;20078;-76
2022/09/28 13:01:47;;;;;;;7.28;1.00;;;17.40;58.00;;;;;;7371249;19;20014;-76
2022/09/28 13:04:50;;;;;;;5.90;1.33;;;17.70;58.00;;;;;;7372929;19;20442;-76
2022/09/28 13:07:27;;;;;;;4.90;1.38;;;18.00;56.00;;;;;;7372667;19;20078;-76
2022/09/28 13:10:05;;;;;;;7.20;1.23;;;18.00;54.20;;;;;;7371076;19;20105;-77
2022/09/28 13:12:43;;;;;;;5.55;1.10;;;18.00;55.20;;;;;;7372634;19;20081;-76
2022/09/28 13:15:34;;;;;;;3.83;1.33;;;18.00;54.60;;;;;;7372280;19;20817;-76
2022/09/28 13:18:12;;;;;;;6.50;1.08;;;18.20;54.90;;;;;;7371614;19;20143;-76
2022/09/28 13:20:53;;;;;;;4.10;0.95;;;18.20;54.50;;;;;;7371449;19;20031;-76
2022/09/28 13:23:24;;;;;;;5.95;1.40;;;18.30;54.30;;;;;;7375011;19;20018;-76